Elmer, Pennsylvania
Current Conditions -  °F | °C
As of 12:35 PM on Thursday 23 Oct 2014 (Local Time) from KN38 Reporting Station
Overcast Overcast  
Wind Chill: 50°   Ceiling: 2100
Heat Index: 50°   Visibility: 10mi
Dew Point: 43°   Wind: 21mph
Humidity: 76%   Direction: 350°N
Pressure: 29.95"   Gusts: 35mph
Location:  41.9252°N, 77.5198°W
Report Text: KN38 231635Z AUTO 35018G30KT 10SM BKN021 OVC025 10/06 A2995 RMK AO2
Loading
Personal Weather Stations






























Interactive Weather Map
Tropical Storm Tracking
New forecast layout! Learn more

10-Day Weather Forecast

Advertisements
Track Severe Weather on mobile